Flight Track Log - Related Links

Times and Time Zones

All times are in EDT time to prevent confusion due to time zone crossing. See the TAM3375 flight status page for this flight to view local times or setup timezone preferences in your user account.

Time Position Orientation Groundspeed Altitude Reporting Facility
EDT Latitude Longitude Course Direction KTS MPH feet Rate Location/Type
Sun 05:49:00 PM -21.1358 -41.9260 240° Southwest  Level Estimated
Sun 05:50:00 PM -21.1772 -42.0045 241° Southwest  Level Estimated
Sun 05:51:00 PM -21.2186 -42.0831 241° Southwest  Level Estimated
Sun 05:52:00 PM -21.2599 -42.1618 241° Southwest  Level Estimated
Sun 05:53:00 PM -21.3012 -42.2405 241° Southwest  Level Estimated
Sun 05:54:00 PM -21.3425 -42.3192 241° Southwest  Level Estimated
Sun 05:55:00 PM -21.3837 -42.3980 241° Southwest  Level Estimated
Sun 05:56:00 PM -21.4249 -42.4768 241° Southwest  Level Estimated
Sun 05:57:00 PM -21.4661 -42.5556 241° Southwest  Level Estimated
Sun 05:58:00 PM -21.5072 -42.6346 241° Southwest  Level Estimated
Sun 05:59:00 PM -21.5483 -42.7135 241° Southwest  Level Estimated
Sun 06:00:00 PM -21.5893 -42.7925 241° Southwest  Level Estimated
Sun 06:01:00 PM -21.6303 -42.8716 241° Southwest  Level Estimated
Sun 06:02:00 PM -21.6713 -42.9506 241° Southwest  Level Estimated
Sun 06:03:00 PM -21.7122 -43.0298 241° Southwest  Level Estimated
Sun 06:04:00 PM -21.7531 -43.1090 241° Southwest  Level Estimated
Sun 06:05:00 PM -21.7939 -43.1882 241° Southwest  Level Estimated
Sun 06:06:00 PM -21.8347 -43.2674 241° Southwest  Level Estimated
Sun 06:07:00 PM -21.8755 -43.3467 241° Southwest  Level Estimated
Sun 06:08:00 PM -21.9163 -43.4261 241° Southwest  Level Estimated
Sun 06:09:00 PM -21.9570 -43.5055 241° Southwest  Level Estimated
Sun 06:10:00 PM -21.9976 -43.5850 241° Southwest  Level Estimated
Sun 06:11:00 PM -22.0382 -43.6645 241° Southwest  Level Estimated
Sun 06:12:00 PM -22.0788 -43.7440 241° Southwest  Level Estimated
Sun 06:13:00 PM -22.1194 -43.8236 241° Southwest  Level Estimated
Sun 06:14:00 PM -22.1599 -43.9032 241° Southwest  Level Estimated
Sun 06:15:00 PM -22.2004 -43.9829 241° Southwest  Level Estimated
Sun 06:16:00 PM -22.2408 -44.0626 241° Southwest  Level Estimated
Sun 06:17:00 PM -22.2812 -44.1424 241° Southwest  Level Estimated
Sun 06:18:00 PM -22.3215 -44.2222 241° Southwest  Level Estimated
Sun 06:19:00 PM -22.3618 -44.3020 241° Southwest  Level Estimated
Sun 06:20:00 PM -22.4021 -44.3820 241° Southwest  Level Estimated
Sun 06:21:00 PM -22.4424 -44.4619 241° Southwest  Level Estimated
Sun 06:22:00 PM -22.4826 -44.5419 241° Southwest  Level Estimated
Sun 06:23:00 PM -22.5227 -44.6219 241° Southwest  Level Estimated
Sun 06:24:00 PM -22.5628 -44.7020 242° Southwest  Level Estimated
Sun 06:25:00 PM -22.6029 -44.7822 242° Southwest  Level Estimated
Sun 06:26:00 PM -22.6430 -44.8624 242° Southwest  Level Estimated
Sun 06:27:00 PM -22.6830 -44.9426 242° Southwest  Level Estimated
Sun 06:28:00 PM -22.7229 -45.0229 242° Southwest  Level Estimated
Sun 06:29:00 PM -22.7628 -45.1032 242° Southwest  Level Estimated
Sun 06:30:00 PM -22.8027 -45.1836 242° Southwest  Level Estimated
Sun 06:31:00 PM -22.8426 -45.2640 242° Southwest  Level Estimated
Sun 06:32:00 PM -22.8824 -45.3445 242° Southwest  Level Estimated
Sun 06:33:00 PM -22.9221 -45.4250 242° Southwest  Level Estimated
Sun 06:34:00 PM -22.9618 -45.5055 242° Southwest  Level Estimated
Sun 06:35:00 PM -23.0015 -45.5862 242° Southwest  Level Estimated
Sun 06:36:00 PM -23.0411 -45.6668 242° Southwest  Level Estimated
Sun 06:37:00 PM -23.0807 -45.7475 242° Southwest  Level Estimated
Sun 06:38:00 PM -23.1203 -45.8283 242° Southwest  Level Estimated
Sun 06:39:00 PM -23.1598 -45.9091 242° Southwest  Level Estimated
Sun 06:40:00 PM -23.1992 -45.9899 242° Southwest  Level Estimated
Sun 06:41:00 PM -23.2387 -46.0708 242° Southwest  Level Estimated
Sun 06:42:00 PM -23.2781 -46.1517 242° Southwest  Level Estimated
Sun 06:43:00 PM -23.3174 -46.2327 242° Southwest  Level Estimated
Sun 06:44:00 PM -23.3567 -46.3138 242° Southwest  Level Estimated
Sun 06:45:00 PM -23.3960 -46.3949 242° Southwest  Level Estimated
Sun 06:46:00 PM -23.4321 -46.4695 242° Southwest  Level Estimated
Sun 06:47:00 PM -23.4321 -46.4695 190° South  Level Estimated
Sun 06:48:00 PM -23.4321 -46.4695 350° North  Level Estimated
Sun 06:49:00 PM -23.4321 -46.4695 350° North  Level Estimated
Sun 06:50:00 PM -23.4321 -46.4695 350° North  Level Estimated
Sun 06:51:00 PM -23.4321 -46.4695 350° North  Level Estimated
Sun 06:52:00 PM -23.4321 -46.4695 350° North  Level Estimated
Sun 06:53:00 PM -23.4321 -46.4695 350° North  Level Estimated
Sun 06:54:00 PM -23.4321 -46.4695 350° North  Level Estimated
Sun 06:55:00 PM -23.4321 -46.4695 350° North  Level Estimated
Sun 06:56:00 PM -23.4321 -46.4695 350° North  Level Estimated
Sun 06:57:00 PM -23.4321 -46.4695 350° North  Level Estimated
Sun 06:58:00 PM -23.4321 -46.4695 350° North  Level Estimated
Sun 06:59:00 PM -23.4321 -46.4695 350° North  Level Estimated
Sun 07:00:00 PM -23.4321 -46.4695 350° North  Level Estimated
Sun 07:01:00 PM -23.4321 -46.4695 350° North  Level Estimated
Sun 07:02:00 PM -23.4321 -46.4695 350° North  Level Estimated

Login

Don't have an account? Register now (free) for customized features, flight alerts, and more!